createdAt,value
2022-12-03T00:02:01.794Z,30.35
2022-12-03T00:04:28.403Z,32.65
2022-12-03T00:06:54.936Z,29.60
2022-12-03T00:09:21.527Z,27.77
2022-12-03T00:11:48.128Z,28.02
2022-12-03T00:14:14.820Z,30.73
2022-12-03T00:16:41.361Z,31.02
2022-12-03T00:19:07.976Z,29.83
2022-12-03T00:21:34.875Z,27.42
2022-12-03T00:24:01.518Z,26.92
2022-12-03T00:26:28.209Z,27.10
2022-12-03T00:28:54.832Z,23.27
2022-12-03T00:31:23.348Z,26.65
2022-12-03T00:33:51.068Z,31.40
2022-12-03T00:36:18.307Z,31.27
2022-12-03T00:38:45.278Z,29.13
2022-12-03T00:41:12.032Z,31.50
2022-12-03T00:43:38.833Z,31.75
2022-12-03T00:46:05.611Z,30.00
2022-12-03T00:48:32.193Z,34.55
2022-12-03T00:50:58.761Z,33.67
2022-12-03T00:53:25.321Z,28.90
2022-12-03T00:55:51.937Z,34.42
2022-12-03T00:58:18.833Z,32.30
2022-12-03T01:00:45.388Z,28.77
2022-12-03T01:03:11.996Z,33.10
2022-12-03T01:05:38.605Z,32.28
2022-12-03T01:08:05.508Z,30.35
2022-12-03T01:10:32.077Z,29.40
2022-12-03T01:12:58.636Z,34.92
2022-12-03T01:15:25.176Z,28.75
2022-12-03T01:17:54.116Z,32.17
2022-12-03T01:20:20.992Z,29.17
2022-12-03T01:22:47.597Z,31.50
2022-12-03T01:25:14.274Z,27.23
2022-12-03T01:27:40.886Z,26.35
2022-12-03T01:30:08.247Z,28.45
2022-12-03T01:32:34.804Z,27.58
2022-12-03T01:35:01.392Z,27.77
2022-12-03T01:37:28.020Z,29.00
2022-12-03T01:39:54.691Z,29.58
2022-12-03T01:42:22.678Z,31.77
2022-12-03T01:44:52.566Z,29.35
2022-12-03T01:47:22.649Z,31.98
2022-12-03T01:50:16.201Z,31.25
2022-12-03T01:52:43.097Z,26.50
2022-12-03T01:58:09.341Z,28.58
2022-12-03T02:00:36.025Z,25.67
2022-12-03T02:03:10.853Z,31.70
2022-12-03T02:05:38.445Z,32.72
2022-12-03T02:08:26.633Z,29.45
2022-12-03T02:10:53.468Z,26.17
2022-12-03T02:13:20.498Z,29.70
2022-12-03T02:15:47.177Z,27.75
2022-12-03T02:18:13.895Z,30.75
2022-12-03T02:21:04.452Z,27.17
2022-12-03T02:23:49.326Z,29.40
2022-12-03T02:26:15.991Z,24.70
2022-12-03T02:28:42.845Z,24.50
2022-12-03T02:31:09.525Z,27.27
2022-12-03T02:33:36.304Z,28.08
2022-12-03T02:36:04.152Z,27.92
2022-12-03T02:38:32.369Z,27.73
2022-12-03T02:41:04.217Z,24.58
2022-12-03T02:43:31.132Z,26.35
2022-12-03T02:46:01.406Z,29.35
2022-12-03T02:48:34.667Z,26.23
2022-12-03T02:51:08.900Z,32.42
2022-12-03T02:53:47.003Z,27.00
2022-12-03T02:56:19.947Z,29.52
2022-12-03T02:58:49.329Z,30.80
2022-12-03T03:01:17.122Z,29.75
2022-12-03T03:03:45.660Z,27.98
2022-12-03T03:06:13.157Z,28.25
2022-12-03T03:08:40.155Z,24.90
2022-12-03T03:11:06.811Z,28.70
2022-12-03T03:13:35.339Z,26.35
2022-12-03T03:16:03.932Z,30.23
2022-12-03T03:18:31.114Z,31.73
2022-12-03T03:20:57.750Z,32.90
2022-12-03T03:23:24.496Z,26.70
2022-12-03T03:26:01.257Z,30.17
2022-12-03T03:28:29.481Z,31.23
2022-12-03T03:30:57.428Z,28.17
2022-12-03T03:33:24.492Z,31.33
2022-12-03T03:35:51.407Z,30.05
2022-12-03T03:38:20.316Z,29.92
2022-12-03T03:40:48.420Z,29.63
2022-12-03T03:43:15.136Z,29.23
2022-12-03T03:45:42.920Z,27.67
2022-12-03T03:48:10.651Z,29.80
2022-12-03T03:50:37.490Z,30.73
2022-12-03T03:53:04.666Z,30.13
2022-12-03T03:55:32.191Z,27.65
2022-12-03T03:57:59.308Z,30.00
2022-12-03T04:00:26.240Z,29.95
2022-12-03T04:02:53.981Z,29.13
2022-12-03T04:05:22.225Z,30.15
2022-12-03T04:07:48.834Z,29.80
2022-12-03T04:10:34.515Z,25.20
2022-12-03T04:13:01.564Z,26.30
2022-12-03T04:15:28.566Z,27.10
2022-12-03T04:18:14.191Z,27.02
2022-12-03T04:20:41.004Z,26.73
2022-12-03T04:23:07.810Z,25.70
2022-12-03T04:25:53.288Z,24.45
2022-12-03T04:28:38.788Z,31.02
2022-12-03T04:31:25.702Z,28.38
2022-12-03T04:34:11.444Z,27.02
2022-12-03T04:36:38.637Z,27.20
2022-12-03T04:39:05.689Z,28.10
2022-12-03T04:41:32.303Z,23.65
2022-12-03T04:44:17.600Z,23.23
2022-12-03T04:46:44.166Z,23.95
2022-12-03T04:49:11.342Z,25.08
2022-12-03T04:51:38.006Z,24.85
2022-12-03T04:54:04.669Z,21.70
2022-12-03T04:56:31.308Z,27.40
2022-12-03T04:58:57.903Z,24.05
2022-12-03T05:01:24.555Z,26.58
2022-12-03T05:03:51.359Z,23.13
2022-12-03T05:06:17.970Z,21.50
2022-12-03T05:08:44.533Z,20.85
2022-12-03T05:11:11.291Z,18.75
2022-12-03T05:13:37.879Z,23.17
2022-12-03T05:16:04.769Z,20.33
2022-12-03T05:18:31.337Z,20.50
2022-12-03T05:20:57.913Z,22.42
2022-12-03T05:23:24.858Z,21.88
2022-12-03T05:25:51.492Z,19.52
2022-12-03T05:28:18.336Z,23.15
2022-12-03T05:30:44.976Z,21.48
2022-12-03T05:33:11.775Z,19.48
2022-12-03T05:35:38.355Z,19.13
2022-12-03T05:38:05.021Z,18.10
2022-12-03T05:40:31.648Z,19.05
2022-12-03T05:42:58.345Z,20.05
2022-12-03T05:45:27.308Z,16.60
2022-12-03T05:47:55.029Z,20.50
2022-12-03T05:50:23.542Z,22.45
2022-12-03T05:52:50.898Z,29.15
2022-12-03T05:55:18.651Z,23.20
2022-12-03T05:57:45.811Z,25.33
2022-12-03T06:00:25.156Z,29.13
2022-12-03T06:02:52.313Z,24.60
2022-12-03T06:05:19.963Z,26.77
2022-12-03T06:07:47.799Z,28.48
2022-12-03T06:10:16.589Z,30.65
2022-12-03T06:12:43.807Z,28.20
2022-12-03T06:15:11.572Z,28.80
2022-12-03T06:17:38.462Z,31.08
2022-12-03T06:20:05.680Z,31.13
2022-12-03T06:22:32.546Z,27.77
2022-12-03T06:25:03.576Z,34.42
2022-12-03T06:27:33.153Z,32.10
2022-12-03T06:29:59.779Z,28.63
2022-12-03T06:32:26.480Z,30.45
2022-12-03T06:34:53.422Z,33.50
2022-12-03T06:37:20.691Z,31.02
2022-12-03T06:39:47.288Z,30.67
2022-12-03T06:42:13.888Z,32.30
2022-12-03T06:44:41.178Z,32.85
2022-12-03T06:47:07.821Z,33.78
2022-12-03T06:49:34.664Z,28.73
2022-12-03T06:52:01.267Z,34.55
2022-12-03T06:54:30.185Z,34.03
2022-12-03T06:56:56.845Z,27.27
2022-12-03T06:59:23.512Z,30.40
2022-12-03T07:01:50.141Z,30.63
2022-12-03T07:04:16.738Z,33.33
2022-12-03T07:06:43.791Z,28.90
2022-12-03T07:09:10.527Z,32.17
2022-12-03T07:11:40.378Z,29.75
2022-12-03T07:14:08.327Z,33.45
2022-12-03T07:16:35.872Z,31.92
2022-12-03T07:19:03.422Z,32.13
2022-12-03T07:21:30.019Z,35.78
2022-12-03T07:23:56.685Z,29.83
2022-12-03T07:26:23.293Z,31.05
2022-12-03T07:28:49.892Z,35.38
2022-12-03T07:31:16.624Z,29.80
2022-12-03T07:33:43.306Z,37.75
2022-12-03T07:36:10.433Z,36.42
2022-12-03T07:38:37.453Z,37.20
2022-12-03T07:41:04.372Z,33.47
2022-12-03T07:43:31.167Z,31.80
2022-12-03T07:45:57.947Z,31.23
2022-12-03T07:48:24.517Z,35.10
2022-12-03T07:50:51.673Z,35.25
2022-12-03T07:53:18.326Z,31.85
2022-12-03T07:55:44.992Z,30.85
2022-12-03T07:58:11.645Z,38.60
2022-12-03T08:00:38.253Z,32.97
2022-12-03T08:03:04.934Z,32.72
2022-12-03T08:05:31.573Z,32.83
2022-12-03T08:07:58.228Z,46.78
2022-12-03T08:10:26.520Z,33.45
2022-12-03T08:12:53.691Z,35.55
2022-12-03T08:15:25.736Z,37.17
2022-12-03T08:18:00.592Z,31.10
2022-12-03T08:20:31.765Z,34.30
2022-12-03T08:22:59.176Z,34.43
2022-12-03T08:25:26.933Z,32.85
2022-12-03T08:28:15.569Z,31.55
2022-12-03T08:30:58.914Z,34.25
2022-12-03T08:33:31.053Z,32.67
2022-12-03T08:38:24.927Z,30.70
2022-12-03T08:40:55.187Z,32.42
2022-12-03T08:43:24.618Z,30.73
2022-12-03T08:45:55.934Z,31.77
2022-12-03T08:48:34.587Z,35.13
2022-12-03T08:51:10.757Z,31.05
2022-12-03T08:53:47.562Z,37.92
2022-12-03T08:56:20.561Z,34.92
2022-12-03T08:58:49.110Z,35.65
2022-12-03T09:01:27.377Z,38.13
2022-12-03T09:03:55.840Z,36.95
2022-12-03T09:06:23.019Z,37.47
2022-12-03T09:08:49.624Z,36.67
2022-12-03T09:11:16.769Z,35.33
2022-12-03T09:13:43.414Z,30.58
2022-12-03T09:16:10.105Z,35.22
2022-12-03T09:18:36.686Z,33.50
2022-12-03T09:21:03.879Z,35.22
2022-12-03T09:23:30.473Z,35.10
2022-12-03T09:25:57.033Z,34.30
2022-12-03T09:28:23.675Z,36.35
2022-12-03T09:30:50.378Z,37.25
2022-12-03T09:33:16.994Z,36.03
2022-12-03T09:35:43.613Z,37.55
2022-12-03T09:38:10.719Z,41.85
2022-12-03T09:40:37.333Z,33.08
2022-12-03T09:43:04.946Z,38.60
2022-12-03T09:45:31.813Z,43.88
2022-12-03T09:48:01.774Z,36.78
2022-12-03T09:50:28.809Z,34.13
2022-12-03T09:52:58.397Z,37.88
2022-12-03T09:55:27.132Z,36.35
2022-12-03T09:57:55.196Z,31.58
2022-12-03T10:00:25.185Z,35.88
2022-12-03T10:02:54.251Z,36.60
2022-12-03T10:05:22.246Z,39.78
2022-12-03T10:07:51.145Z,39.22
2022-12-03T10:10:21.004Z,37.47
2022-12-03T10:12:48.080Z,33.85
2022-12-03T10:15:17.408Z,33.53
2022-12-03T10:17:45.642Z,36.05
2022-12-03T10:20:15.607Z,37.67
2022-12-03T10:22:42.228Z,34.33
2022-12-03T10:25:12.338Z,34.25
2022-12-03T10:27:39.930Z,39.10
2022-12-03T10:30:19.593Z,36.63
2022-12-03T10:32:48.970Z,34.45
2022-12-03T10:35:40.991Z,36.58
2022-12-03T10:38:28.800Z,32.42
2022-12-03T10:40:55.540Z,33.47
2022-12-03T10:43:24.550Z,34.97
2022-12-03T10:46:04.428Z,36.40
2022-12-03T10:48:31.370Z,32.70
2022-12-03T10:51:10.264Z,33.97
2022-12-03T10:53:39.455Z,38.58
2022-12-03T10:56:07.959Z,37.80
2022-12-03T10:58:38.574Z,40.58
2022-12-03T11:01:23.339Z,34.25
2022-12-03T11:03:50.589Z,35.78
2022-12-03T11:06:21.556Z,36.47
2022-12-03T11:08:56.747Z,32.30
2022-12-03T11:11:26.932Z,37.90
2022-12-03T11:14:01.723Z,41.97
2022-12-03T11:16:40.473Z,35.90
2022-12-03T11:19:12.892Z,38.83
2022-12-03T11:22:05.679Z,37.67
2022-12-03T11:24:34.597Z,34.33
2022-12-03T11:27:01.136Z,35.13
2022-12-03T11:29:59.365Z,32.50
2022-12-03T11:32:46.159Z,38.72
2022-12-03T11:35:27.910Z,34.88
2022-12-03T11:37:54.539Z,38.40
2022-12-03T11:40:21.133Z,42.90
2022-12-03T11:42:49.213Z,34.47
2022-12-03T11:45:30.513Z,31.48
2022-12-03T11:48:02.018Z,40.53
2022-12-03T11:50:52.158Z,36.75
2022-12-03T11:53:25.347Z,38.03
2022-12-03T11:56:08.250Z,36.90
2022-12-03T11:58:38.173Z,36.78
2022-12-03T12:01:07.163Z,36.95
2022-12-03T12:03:46.031Z,36.08
2022-12-03T12:06:14.109Z,33.22
2022-12-03T12:09:03.559Z,36.78
2022-12-03T12:11:33.205Z,39.15
2022-12-03T12:14:03.958Z,38.72
2022-12-03T12:16:50.267Z,36.85
2022-12-03T12:19:43.264Z,37.42
2022-12-03T12:22:25.002Z,37.25
2022-12-03T12:25:02.524Z,36.83
2022-12-03T12:27:39.088Z,34.10
2022-12-03T12:30:14.634Z,42.75
2022-12-03T12:32:52.456Z,34.45
2022-12-03T12:35:23.356Z,38.72
2022-12-03T12:38:02.488Z,38.92
2022-12-03T12:40:32.027Z,36.25
2022-12-03T12:43:04.319Z,35.83
2022-12-03T12:45:39.425Z,35.60
2022-12-03T12:48:17.605Z,42.90
2022-12-03T12:50:46.638Z,41.45
2022-12-03T12:53:28.027Z,36.60
2022-12-03T12:56:07.004Z,37.10
2022-12-03T12:58:34.319Z,36.47
2022-12-03T13:01:07.405Z,34.92
2022-12-03T13:03:37.081Z,35.65
2022-12-03T13:06:04.100Z,36.20
2022-12-03T13:08:44.004Z,33.95
2022-12-03T13:11:24.881Z,38.35
2022-12-03T13:13:52.186Z,33.67
2022-12-03T13:16:32.629Z,38.90
2022-12-03T13:19:00.645Z,40.58
2022-12-03T13:21:44.305Z,37.05
2022-12-03T13:24:52.939Z,38.28
2022-12-03T13:27:19.603Z,38.15
2022-12-03T13:29:50.673Z,35.35
2022-12-03T13:32:38.875Z,38.13
2022-12-03T13:35:26.956Z,36.58
2022-12-03T13:37:53.826Z,32.83
2022-12-03T13:40:26.538Z,31.73
2022-12-03T13:42:54.173Z,36.00
2022-12-03T13:45:20.746Z,39.92
2022-12-03T13:47:49.919Z,34.97
2022-12-03T13:50:41.057Z,36.75
2022-12-03T13:53:29.726Z,36.70
2022-12-03T13:56:18.276Z,39.83
2022-12-03T13:58:44.877Z,36.38
2022-12-03T14:01:11.541Z,42.85
2022-12-03T14:03:38.233Z,39.50
2022-12-03T14:06:04.957Z,38.47
2022-12-03T14:08:31.776Z,39.63
2022-12-03T14:11:00.516Z,38.90
2022-12-03T14:13:28.257Z,40.78
2022-12-03T14:15:54.951Z,38.90
2022-12-03T14:18:21.569Z,39.42
2022-12-03T14:20:48.305Z,37.55
2022-12-03T14:23:15.439Z,45.05
2022-12-03T14:25:43.836Z,43.78
2022-12-03T14:28:10.761Z,47.40
2022-12-03T14:30:37.541Z,39.58
2022-12-03T14:33:04.174Z,41.83
2022-12-03T14:35:30.768Z,46.60
2022-12-03T14:37:57.380Z,40.05
2022-12-03T14:40:24.136Z,42.85
2022-12-03T14:42:50.794Z,38.00
2022-12-03T14:45:17.461Z,40.25
2022-12-03T14:47:44.125Z,46.45
2022-12-03T14:50:14.115Z,38.15
2022-12-03T14:52:40.916Z,43.58
2022-12-03T14:55:07.875Z,36.35
2022-12-03T14:57:34.448Z,44.85
2022-12-03T15:00:01.168Z,38.03
2022-12-03T15:02:28.754Z,40.42
2022-12-03T15:04:55.389Z,39.45
2022-12-03T15:07:22.192Z,37.80
2022-12-03T15:09:48.884Z,40.97
2022-12-03T15:12:15.512Z,40.88
2022-12-03T15:14:42.396Z,40.70
2022-12-03T15:17:09.070Z,42.60
2022-12-03T15:19:35.782Z,37.28
2022-12-03T15:22:02.455Z,41.92
2022-12-03T15:24:29.165Z,40.50
2022-12-03T15:26:55.996Z,41.50
2022-12-03T15:29:23.688Z,44.40
2022-12-03T15:31:50.369Z,38.45
2022-12-03T15:34:22.191Z,39.63
2022-12-03T15:36:49.439Z,39.92
2022-12-03T15:39:16.003Z,40.67
2022-12-03T15:41:42.615Z,44.03
2022-12-03T15:44:09.301Z,42.33
2022-12-03T15:46:36.078Z,41.03
2022-12-03T15:49:02.855Z,43.75
2022-12-03T15:51:29.434Z,39.35
2022-12-03T15:53:56.065Z,49.80
2022-12-03T15:56:22.648Z,42.47
2022-12-03T15:58:49.256Z,43.25
2022-12-03T16:01:18.479Z,38.08
2022-12-03T16:03:45.385Z,42.65
2022-12-03T16:06:12.631Z,37.78
2022-12-03T16:08:39.306Z,43.85
2022-12-03T16:11:06.176Z,41.67
2022-12-03T16:13:32.759Z,38.90
2022-12-03T16:16:00.150Z,38.38
2022-12-03T16:18:26.810Z,34.63
2022-12-03T16:20:53.699Z,37.13
2022-12-03T16:23:20.340Z,42.13
2022-12-03T16:25:46.968Z,45.80
2022-12-03T16:28:13.652Z,42.50
2022-12-03T16:30:40.520Z,39.72
2022-12-03T16:33:07.120Z,39.58
2022-12-03T16:35:33.697Z,43.72
2022-12-03T16:38:00.307Z,44.60
2022-12-03T16:40:26.952Z,43.40
2022-12-03T16:42:53.532Z,36.53
2022-12-03T16:45:40.504Z,41.22
2022-12-03T16:48:07.099Z,41.47
2022-12-03T16:50:34.229Z,38.70
2022-12-03T16:53:00.925Z,42.88
2022-12-03T16:55:27.532Z,42.92
2022-12-03T16:57:54.210Z,41.63
2022-12-03T17:00:21.997Z,35.60
2022-12-03T17:02:48.818Z,39.65
2022-12-03T17:05:15.544Z,39.25
2022-12-03T17:07:42.182Z,40.50
2022-12-03T17:10:09.349Z,40.70
2022-12-03T17:13:07.249Z,44.67
2022-12-03T17:15:22.759Z,41.33
2022-12-03T17:17:49.322Z,42.97
2022-12-03T17:20:17.829Z,34.65
2022-12-03T17:22:44.538Z,41.75
2022-12-03T17:25:11.391Z,40.13
2022-12-03T17:27:44.619Z,35.90
2022-12-03T17:30:12.383Z,41.85
2022-12-03T17:32:39.048Z,35.90
2022-12-03T17:35:06.194Z,40.42
2022-12-03T17:37:32.814Z,38.08
2022-12-03T17:39:59.459Z,36.80
2022-12-03T17:42:26.439Z,39.80
2022-12-03T17:44:53.272Z,42.28
2022-12-03T17:47:20.001Z,38.53
2022-12-03T17:49:46.579Z,39.80
2022-12-03T17:52:13.150Z,40.30
2022-12-03T17:55:08.458Z,44.08
2022-12-03T17:57:26.505Z,40.50
2022-12-03T17:59:53.498Z,32.95
2022-12-03T18:02:20.401Z,37.42
2022-12-03T18:04:47.082Z,34.60
2022-12-03T18:07:14.167Z,37.70
2022-12-03T18:09:40.765Z,41.55
2022-12-03T18:12:07.669Z,39.08
2022-12-03T18:14:34.695Z,41.10
2022-12-03T18:17:01.337Z,33.22
2022-12-03T18:19:27.944Z,31.95
2022-12-03T18:21:55.060Z,39.15
2022-12-03T18:24:22.442Z,38.05
2022-12-03T18:26:50.061Z,38.40
2022-12-03T18:29:16.769Z,36.40
2022-12-03T18:31:43.487Z,38.35
2022-12-03T18:34:10.364Z,35.97
2022-12-03T18:36:37.091Z,37.60
2022-12-03T18:39:05.872Z,39.83
2022-12-03T18:41:33.602Z,42.92
2022-12-03T18:44:03.626Z,38.63
2022-12-03T18:46:52.414Z,44.05
2022-12-03T18:49:16.999Z,36.13
2022-12-03T18:51:43.766Z,35.60
2022-12-03T18:54:13.129Z,41.42
2022-12-03T18:56:40.844Z,33.35
2022-12-03T18:59:08.484Z,41.58
2022-12-03T19:01:35.664Z,35.95
2022-12-03T19:04:02.681Z,39.30
2022-12-03T19:06:30.384Z,36.28
2022-12-03T19:08:57.185Z,43.95
2022-12-03T19:11:24.008Z,39.83
2022-12-03T19:13:51.250Z,38.97
2022-12-03T19:16:18.282Z,41.92
2022-12-03T19:18:45.158Z,36.85
2022-12-03T19:21:14.498Z,41.50
2022-12-03T19:23:42.802Z,39.15
2022-12-03T19:26:15.095Z,37.38
2022-12-03T19:28:42.077Z,35.22
2022-12-03T19:31:12.480Z,38.80
2022-12-03T19:33:39.570Z,38.42
2022-12-03T19:36:07.613Z,36.10
2022-12-03T19:38:34.462Z,40.75
2022-12-03T19:41:06.371Z,42.38
2022-12-03T19:43:38.256Z,37.45
2022-12-03T19:46:06.535Z,34.30
2022-12-03T19:48:34.651Z,36.90
2022-12-03T19:51:19.732Z,40.78
2022-12-03T19:53:48.750Z,38.08
2022-12-03T19:56:17.941Z,35.75
2022-12-03T19:58:46.219Z,40.97
2022-12-03T20:01:19.738Z,39.83
2022-12-03T20:03:48.889Z,36.60
2022-12-03T20:06:17.349Z,39.90
2022-12-03T20:08:44.748Z,37.67
2022-12-03T20:11:20.617Z,39.42
2022-12-03T20:13:49.075Z,40.85
2022-12-03T20:16:16.557Z,37.92
2022-12-03T20:18:45.053Z,32.90
2022-12-03T20:21:13.192Z,38.85
2022-12-03T20:23:40.492Z,36.70
2022-12-03T20:26:12.339Z,42.58
2022-12-03T20:28:39.612Z,43.03
2022-12-03T20:31:13.434Z,37.33
2022-12-03T20:33:42.800Z,37.13
2022-12-03T20:36:10.475Z,38.97
2022-12-03T20:38:37.162Z,41.05
2022-12-03T20:41:12.279Z,33.58
2022-12-03T20:43:39.239Z,31.42
2022-12-03T20:46:08.056Z,39.80
2022-12-03T20:48:37.665Z,36.80
2022-12-03T20:51:10.722Z,39.38
2022-12-03T20:53:38.411Z,37.67
2022-12-03T20:56:06.532Z,34.00
2022-12-03T20:58:34.357Z,35.85
2022-12-03T21:01:19.204Z,37.22
2022-12-03T21:03:47.428Z,38.58
2022-12-03T21:06:15.828Z,33.85
2022-12-03T21:08:43.486Z,36.30
2022-12-03T21:11:12.880Z,38.70
2022-12-03T21:13:44.392Z,39.83
2022-12-03T21:16:17.125Z,39.22
2022-12-03T21:18:44.735Z,33.67
2022-12-03T21:21:16.143Z,38.10
2022-12-03T21:23:44.011Z,40.75
2022-12-03T21:26:20.425Z,37.97
2022-12-03T21:28:52.243Z,38.65
2022-12-03T21:31:25.395Z,33.83
2022-12-03T21:33:56.473Z,32.97
2022-12-03T21:36:26.488Z,37.90
2022-12-03T21:38:53.426Z,35.45
2022-12-03T21:41:20.203Z,40.67
2022-12-03T21:43:46.873Z,37.92
2022-12-03T21:47:10.409Z,38.60
2022-12-03T21:49:03.877Z,45.70
2022-12-03T21:51:30.687Z,38.67
2022-12-03T21:53:57.450Z,37.15
2022-12-03T21:56:24.384Z,36.60
2022-12-03T21:58:51.356Z,38.17
2022-12-03T22:01:23.280Z,37.53
2022-12-03T22:03:50.928Z,34.10
2022-12-03T22:06:18.179Z,35.70
2022-12-03T22:08:45.157Z,36.60
2022-12-03T22:11:15.025Z,40.38
2022-12-03T22:13:41.882Z,42.05
2022-12-03T22:16:14.429Z,39.33
2022-12-03T22:18:42.200Z,40.10
2022-12-03T22:21:12.795Z,39.85
2022-12-03T22:23:40.429Z,39.33
2022-12-03T22:26:10.722Z,41.47
2022-12-03T22:28:37.490Z,38.97
2022-12-03T22:31:08.322Z,37.88
2022-12-03T22:33:35.886Z,42.67
2022-12-03T22:36:06.308Z,45.20
2022-12-03T22:38:33.461Z,37.97
2022-12-03T22:41:00.324Z,36.78
2022-12-03T22:43:27.017Z,39.35
2022-12-03T22:45:55.447Z,40.65
2022-12-03T22:48:23.404Z,37.67
2022-12-03T22:50:51.336Z,36.25
2022-12-03T22:53:18.669Z,38.25
2022-12-03T22:55:53.313Z,41.10
2022-12-03T22:58:19.920Z,38.15
2022-12-03T23:00:46.491Z,39.92
2022-12-03T23:03:13.231Z,36.38
2022-12-03T23:05:39.979Z,43.85
2022-12-03T23:08:10.245Z,36.55
2022-12-03T23:10:39.289Z,41.10
2022-12-03T23:13:06.739Z,41.38
2022-12-03T23:15:33.435Z,38.00
2022-12-03T23:18:01.151Z,38.17
2022-12-03T23:20:28.340Z,38.58
2022-12-03T23:22:55.204Z,35.03
2022-12-03T23:25:22.348Z,35.42
2022-12-03T23:27:49.290Z,40.80
2022-12-03T23:30:16.649Z,36.78
2022-12-03T23:32:44.346Z,42.85
2022-12-03T23:35:12.555Z,37.42
2022-12-03T23:37:42.501Z,40.97
2022-12-03T23:40:09.694Z,37.33
2022-12-03T23:42:36.335Z,36.17
2022-12-03T23:45:03.381Z,37.67
2022-12-03T23:47:30.024Z,37.35
2022-12-03T23:49:56.974Z,38.72
2022-12-03T23:52:24.349Z,37.28
2022-12-03T23:54:50.996Z,42.53
2022-12-03T23:57:18.310Z,42.17
2022-12-03T23:59:44.984Z,37.00
